CheckWX is a tool to help pilots better visualize weather data.  It is not intended as a substitute for an official pre-flight weather briefing.

06:47:05 UTC

CWEU METAR
Eureka Airport
Eureka, Canada
Current

47 mins ago

CWEU 210600Z CCA 36008KT 15SM BCFG FEW005 M09/M11 A3044 RMK ST1 ST TR BCFG S-W VIS 3SM SLP312
Observed
May-21 @ 06:00 UTC
Wind
  • 360° at 8 KTS
Visibility
15 SM
Flight Rules
VFR
Conditions
Patches of Fog
Cloud Levels
  • Few at 500' AGL
Temperature
-9°C / 16°F
Dewpoint
-11°C / 12°F
Humidity
86%
Altimeter
30.44" Hg
Pressure
1030.82 hPa
Previous

47 mins ago

CWEU 210600Z CCB 36008KT 15SM PRFG FEW005 M09/M11 A3044 RMK ST1 ST TR PRFG S-W VIS 3SM SLP312
Observed
May-21 @ 06:00 UTC
Wind
  • 360° at 8 KTS
Visibility
15 SM
Flight Rules
VFR
Conditions
Partial Fog
Cloud Levels
  • Few at 500' AGL
Temperature
-9°C / 16°F
Dewpoint
-11°C / 12°F
Humidity
86%
Altimeter
30.44" Hg
Pressure
1030.82 hPa
Previous

4 hours ago

CWEU 210300Z 36008KT 15SM FEW015 M07/M10 A3043 RMK SC1 SC TR LAST STFD OBS/NEXT 210600 UTC SLP307
Observed
May-21 @ 03:00 UTC
Wind
  • 360° at 8 KTS
Visibility
15 SM
Flight Rules
VFR
Cloud Levels
  • Few at 1,500' AGL
Temperature
-7°C / 19°F
Dewpoint
-10°C / 14°F
Humidity
79%
Altimeter
30.43" Hg
Pressure
1030.52 hPa